Terminal Aerodrome Forecast
Issued by NWS

Home | Current Version | Previous Version | Text Only | Print | Product List | Glossary On
Versions: 1 2 3 4 5 6 7 8 9 10 11 12 13 14 15 16 17 18 19 20 21 22 23 24 25 26 27 28 29 30 31 32 33
000
FTUS43 KDMX 290302 AAA
TAFFOD
TAF AMD
KFOD 290302Z 2903/2924 15007KT P6SM -TSRA SCT007 BKN025CB
     FM290800 18009KT 5SM BR OVC015
     FM291600 20008KT P6SM VCSH SCT020 BKN120=

USA.gov is the U.S. government's official web portal to all federal, state and local government web resources and services.